| Record Date MM/DD/YYYY | Record Julian Date NNN day of the year | Air Temperature Max (Degrees Fahrenheit F) | Time Max Air Temperature HH:MM:SS This is the time of max air temperature standard time. | Air Temperature Min (Degrees Fahrenheit F) | Time Min Air Temperature HH:MM:SS This is the time of min air temperature standard time. | Air Temperature Observed (Degrees Fahrenheit F) This is an instantaneous reading for air temperature at 7:00:00 standard time. | Relative Humidity Max (Percent) | Time Max Relative Humidity HH:MM:SS This is the time of max relative humidity standard time. | Relative Humidity Min (Percent) | Time Min Relative Humidity HH:MM:SS This is the time of min relative humidity standard time. | Relative Humidity Observed (Percent) This is an instantaneous reading at 7:00:00 standard time. | Precipitation (Inches n.nn) total rain fall that occurred for the day. | Pan Evaporation (Inches n.nn) total evaporation that occured for the day. | Wind Run (Miles) Wind travel for the day. | Wind Speed (Miles Per Hour) Resultant / Average speed for the day. | Wind Direction (Degrees) Resultant Direction for the day | Solar Radiation (Langley's) that occurred for the day. | Soil Temperature Max at 2 inch depth (Degrees Fahrenheit F) that occurred during the day. | Time Max Soil temperature at 2 inches HH:MM:SS This is the time of max 2 inch soil temperature standard time. | Soil Temperature Min at 2 inch depth (Degrees Fahrenheit F) that occurred during the day. | Time Min Soil temperature at 2 inches HH:MM:SS This is the time of min 2 inch soil temperature standard time. | Soil Temperature Observed at 2 inch depth (Degrees Fahrenheit F) This is an instantaneous reading 2 inch soil temperature at 7:00:00 standard time. | Soil Temperature Max at 4 inch depth (Degrees Fahrenheit F) that occurred during the day. | Time Max Soil temperature at 4 inches HH:MM:SS This is the time of max 4 inch soil temperature standard time. | Soil Temperature Min at 4 inch depth (Degrees Fahrenheit F) that occurred during the day. | Time Min Soil temperature at 4 inches HH:MM:SS This is the time of min 4 inch soil temperature standard time. | Soil Temperature Observed at 4 inch depth (Degrees Fahrenheit F) This is an instantaneous reading 4 inch soil temperature at 7:00:00 standard time. | DD50 Degree Days 50 Fahrenheit. | Adjusted DD50 Degree Days 50 Fahrenheit adjusted for latitude. | DD60 Degree Days 60 Fahrenheit. |
|---|---|---|---|---|---|---|---|---|---|---|---|---|---|---|---|---|---|---|---|---|---|---|---|---|---|---|---|---|---|---|
| 08/02/2026 | 214 | 81 | 15:07:01 | 67 | 4:56:01 | 70 | 95 | 23:40:03 | 71 | 16:13:00 | 90 | 0 | 36 | 1.5 | 292 | 272 | 87 | 14:05:05 | 81 | 5:54:00 | 81 | 86 | 0:00:00 | 82 | 7:35:05 | 82 | 24 | 25.14 | 14 | |
| 08/03/2026 | 215 | 90 | 14:20:01 | 67 | 4:09:02 | 74 | 98 | 4:19:04 | 50 | 16:20:03 | 88 | 0 | 28 | 1.2 | 329 | 501 | 93 | 14:41:03 | 79 | 4:58:01 | 80 | 91 | 16:30:04 | 80 | 5:57:00 | 81 | 28.5 | 27.1 | 18.5 | |
| 08/04/2026 | 216 | 94 | 14:03:00 | 66 | 4:53:01 | 75 | 98 | 6:18:05 | 35 | 11:17:01 | 87 | 0 | 22 | 0.9 | 335 | 617 | 98 | 14:20:05 | 80 | 6:00:00 | 80 | 95 | 15:20:05 | 81 | 6:50:02 | 81 | 30 | 27.07 | 20 | |
| 08/05/2026 | 217 | 96 | 15:19:04 | 65 | 5:35:04 | 74 | 98 | 6:20:03 | 35 | 14:28:02 | 85 | 0 | 23 | 0.9 | 337 | 612 | 99 | 14:54:00 | 81 | 6:27:02 | 81 | 95 | 15:16:02 | 82 | 7:01:04 | 82 | 30.5 | 27.04 | 20.5 | |
| 08/06/2026 | 218 | 98 | 16:24:01 | 65 | 5:13:02 | 74 | 98 | 6:28:04 | 32 | 12:12:02 | 88 | 0 | 16 | 0.7 | 108 | 551 | 99 | 14:12:00 | 81 | 6:20:02 | 82 | 95 | 14:34:00 | 82 | 6:48:04 | 82 | 31.5 | 27.01 | 21.5 | |
| 08/07/2026 | 219 | 95 | 12:30:05 | 72 | 3:56:01 | 79 | 97 | 23:21:00 | 51 | 12:54:00 | 85 | 0.04 | 22 | 0.9 | 131 | 418 | 96 | 13:10:03 | 83 | 5:53:04 | 84 | 92 | 13:37:04 | 84 | 6:35:01 | 84 | 33.5 | 26.98 | 23.5 | |
| 08/08/2026 | 220 | 96 | 13:02:04 | 71 | 5:27:03 | 76 | 98 | 6:27:05 | 52 | 11:28:02 | 95 | 0 | 30 | 1.3 | 249 | 533 | 97 | 14:48:03 | 82 | 6:02:02 | 82 | 94 | 15:16:00 | 83 | 6:29:00 | 83 | 33.5 | 26.94 | 23.5 | |
| 08/09/2026 | 221 | 93 | 11:04:04 | 71 | 5:16:00 | 79 | 97 | 5:26:04 | 56 | 11:41:00 | 86 | 0 | 17 | 0.7 | 121 | 370 | 95 | 13:27:01 | 83 | 6:25:04 | 84 | 93 | 13:52:00 | 84 | 6:49:01 | 84 | 32 | 26.91 | 22 | |
| 08/10/2026 | 222 | 98 | 13:40:03 | 72 | 2:30:04 | 79 | 98 | 4:47:03 | 49 | 13:17:04 | 88 | 0.14 | 29 | 1.2 | 68 | 480 | 100 | 13:54:00 | 82 | 6:06:00 | 83 | 96 | 14:18:01 | 83 | 6:39:05 | 83 | 35 | 26.88 | 25 | |
| 08/11/2026 | 223 | 95 | 16:20:03 | 73 | 5:36:00 | 78 | 99 | 6:20:00 | 54 | 16:23:00 | 92 | 0 | 48 | 2.0 | 254 | 489 | 95 | 14:18:02 | 82 | 6:14:05 | 83 | 92 | 16:06:03 | 83 | 6:44:03 | 83 | 34 | 26.84 | 24 | |
| 08/12/2026 | 224 | 98 | 15:38:02 | 72 | 4:52:03 | 78 | 98 | 5:48:02 | 45 | 15:42:02 | 90 | 0 | 52 | 2.2 | 261 | 517 | 97 | 14:38:00 | 82 | 5:54:02 | 83 | 94 | 15:49:00 | 83 | 6:15:05 | 83 | 35 | 26.81 | 25 | |
| 08/13/2026 | 225 | 99 | 16:01:03 | 72 | 5:20:03 | 80 | 97 | 5:32:00 | 44 | 15:49:03 | 88 | 0 | 43 | 1.8 | 249 | 559 | 100 | 13:49:04 | 83 | 6:03:00 | 84 | 97 | 15:28:02 | 84 | 6:50:05 | 84 | 35.5 | 26.78 | 25.5 | |
| 08/14/2026 | 226 | 100 | 15:08:00 | 70 | 23:49:02 | 81 | 98 | 4:12:01 | 41 | 15:49:03 | 85 | 0 | 46 | 1.9 | 263 | 580 | 102 | 14:36:02 | 85 | 6:20:01 | 85 | 98 | 15:26:02 | 85 | 6:40:02 | 85 | 35 | 26.74 | 25 | |
| 08/15/2026 | 227 | 101 | 15:14:03 | 68 | 5:10:04 | 75 | 98 | 5:52:05 | 40 | 16:16:00 | 90 | 0 | 33 | 1.4 | 301 | 564 | 102 | 14:34:04 | 84 | 6:15:02 | 84 | 98 | 15:39:01 | 85 | 6:49:00 | 85 | 34.5 | 26.71 | 24.5 | |
| 08/16/2026 | 228 | 102 | 13:58:03 | 72 | 4:55:03 | 77 | 97 | 5:24:05 | 38 | 14:34:02 | 92 | 0 | 32 | 1.3 | 295 | 560 | 104 | 14:31:00 | 85 | 6:05:04 | 86 | 100 | 15:18:01 | 86 | 6:40:04 | 86 | 37 | 26.67 | 27 | |
| 08/17/2026 | 229 | 102 | 14:07:04 | 76 | 5:37:00 | 81 | 94 | 5:40:04 | 33 | 14:06:00 | 87 | 0 | 60 | 2.5 | 260 | 519 | 102 | 14:14:03 | 87 | 6:16:04 | 87 | 99 | 15:18:00 | 88 | 7:00:01 | 88 | 39 | 26.64 | 29 | |
| 08/18/2026 | 230 | 101 | 14:07:02 | 73 | 4:45:04 | 76 | 96 | 4:58:04 | 43 | 14:08:04 | 93 | 0 | 28 | 1.2 | 348 | 476 | 103 | 14:12:04 | 86 | 6:55:00 | 86 | 99 | 14:45:00 | 87 | 6:58:00 | 87 | 37 | 26.6 | 27 | |
| 08/19/2026 | 231 | 102 | 13:57:05 | 74 | 4:16:05 | 80 | 96 | 4:25:01 | 42 | 16:08:00 | 85 | 0 | 41 | 1.7 | 320 | 539 | 104 | 14:22:05 | 86 | 6:05:04 | 86 | 100 | 14:40:00 | 87 | 6:54:02 | 87 | 38 | 26.57 | 28 | |
| 08/20/2026 | 232 | 101 | 13:55:05 | 72 | 22:48:05 | 77 | 96 | 21:15:05 | 43 | 14:15:00 | 88 | 0.39 | 54 | 2.3 | 265 | 491 | 104 | 14:01:00 | 87 | 6:33:04 | 87 | 100 | 14:28:04 | 87 | 7:10:03 | 88 | 36.5 | 26.54 | 26.5 | |
| 08/21/2026 | 233 | 97 | 14:24:05 | 72 | 5:31:05 | 76 | 97 | 23:45:00 | 50 | 14:25:02 | 89 | 0 | 27 | 1.1 | 70 | 505 | 99 | 14:07:03 | 83 | 6:35:04 | 84 | 96 | 14:52:02 | 85 | 7:06:04 | 85 | 34.5 | 26.5 | 24.5 | |
| 08/22/2026 | 234 | 102 | 14:43:01 | 70 | 5:33:02 | 73 | 99 | 6:53:01 | 35 | 14:49:00 | 97 | 0.41 | 30 | 1.2 | 48 | 548 | 100 | 14:20:04 | 82 | 6:17:01 | 83 | 97 | 15:32:00 | 84 | 6:49:05 | 84 | 36 | 26.47 | 26 | |
| 08/23/2026 | 235 | 96 | 16:19:05 | 72 | 3:25:02 | 75 | 97 | 4:14:04 | 43 | 16:09:01 | 92 | 0 | 29 | 1.2 | 31 | 551 | 98 | 14:18:00 | 83 | 6:45:05 | 83 | 95 | 14:47:05 | 84 | 6:45:02 | 84 | 34 | 26.43 | 24 | |
| 08/24/2026 | 236 | 90 | 15:29:03 | 72 | 5:36:01 | 76 | 97 | 4:03:03 | 62 | 15:30:03 | 89 | 0 | 28 | 1.2 | 305 | 321 | 92 | 15:36:04 | 83 | 6:05:02 | 83 | 91 | 16:03:05 | 84 | 6:54:05 | 84 | 31 | 26.4 | 21 | |
| 08/25/2026 | 237 | 95 | 14:26:01 | 72 | 0:42:04 | 75 | 97 | 2:21:03 | 54 | 14:43:02 | 96 | 0.04 | 24 | 1.0 | 284 | 432 | 95 | 14:54:00 | 82 | 5:58:05 | 82 | 92 | 15:11:04 | 83 | 6:51:01 | 83 | 33.5 | 26.36 | 23.5 | |
| 08/26/2026 | 238 | 98 | 13:46:02 | 71 | 22:30:05 | 77 | 98 | 6:16:03 | 43 | 15:38:02 | 98 | 1.04 | 56 | 2.3 | 259 | 495 | 98 | 14:29:04 | 82 | 6:04:04 | 83 | 95 | 14:55:01 | 83 | 6:37:03 | 83 | 34.5 | 26.33 | 24.5 | |
| 08/27/2026 | 239 | 93 | 15:51:01 | 72 | 4:14:02 | 74 | 98 | 6:08:00 | 53 | 16:34:02 | 97 | 0.01 | 26 | 1.1 | 320 | 470 | 95 | 14:51:01 | 81 | 6:10:02 | 81 | 92 | 15:29:05 | 82 | 6:49:04 | 82 | 32.5 | 26.29 | 22.5 | |
| 08/28/2026 | 240 | 95 | 15:21:00 | 67 | 23:58:03 | 73 | 99 | 6:35:04 | 36 | 15:20:00 | 98 | 0.15 | 22 | 0.9 | 51 | 426 | 93 | 14:50:03 | 81 | 6:07:04 | 81 | 91 | 15:38:00 | 82 | 7:00:00 | 82 | 31 | 26.26 | 21 | |
| 08/29/2026 | 241 | 95 | 15:43:05 | 63 | 5:36:05 | 67 | 99 | 6:53:05 | 33 | 13:37:02 | 99 | 0 | 18 | 0.7 | 52 | 559 | 94 | 14:21:04 | 77 | 6:47:02 | 77 | 91 | 15:35:05 | 79 | 7:15:00 | 79 | 29 | 26.22 | 19 | |
| 08/30/2026 | 242 | 95 | 15:11:05 | 68 | 5:09:02 | 72 | 98 | 6:24:04 | 49 | 15:16:02 | 97 | 0 | 16 | 0.7 | 95 | 539 | 97 | 14:41:02 | 79 | 6:25:04 | 79 | 94 | 15:32:05 | 81 | 6:56:03 | 81 | 31.5 | 26.19 | 21.5 | |
| 08/31/2026 | 243 | 97 | 14:55:02 | 70 | 4:57:04 | 73 | 98 | 7:04:01 | 49 | 14:57:00 | 98 | 0 | 14 | 0.6 | 104 | 530 | 99 | 14:07:02 | 81 | 6:21:00 | 81 | 95 | 15:33:01 | 82 | 7:03:00 | 82 | 33.5 | 26.15 | 23.5 | |
| Average | 96.5 | 70.23 | 75.8 | 97.43 | 45.37 | 91.07 | 0.07 | 31.67 | 500.8 | 97.9 | 82.43 | 82.83 | 94.77 | 83.5 | 83.57 | 33.37 | 26.59 | 23.37 | ||||||||||||
| Total | 2.22 | 1001 | 797.57 | 701 |